Time;durP1;ratioP1;P1;durP2;ratioP2;P2;SDS_P1;SDS_P2;PMS_P1;PMS_P2;Temp;Humidity;BMP_temperature;BMP_pressure;BME280_temperature;BME280_humidity;BME280_pressure;Samples;Min_cycle;Max_cycle;Signal;HPM_P1;HPM_P2
2022/05/03 00:00:11;;;;;;;19.35;13.05;;;11.40;99.90;;;;;;5028110;28;20477;-60
2022/05/03 00:03:21;;;;;;;21.70;13.18;;;11.40;99.90;;;;;;5062664;28;20072;-61
2022/05/03 00:06:04;;;;;;;23.88;13.52;;;11.30;99.90;;;;;;5031366;28;20041;-60
2022/05/03 00:09:01;;;;;;;20.50;14.23;;;11.20;99.90;;;;;;5030082;28;20045;-63
2022/05/03 00:11:51;;;;;;;22.25;14.93;;;11.10;99.90;;;;;;5022126;28;20523;-63
2022/05/03 00:14:30;;;;;;;28.15;15.35;;;11.10;99.90;;;;;;5029704;28;20050;-62
2022/05/03 00:16:59;;;;;;;24.70;14.93;;;11.00;99.90;;;;;;5030715;28;20529;-63
2022/05/03 00:19:27;;;;;;;25.08;14.57;;;11.00;99.90;;;;;;5030074;28;20516;-63
2022/05/03 00:21:55;;;;;;;32.22;16.58;;;11.00;99.90;;;;;;5029307;28;20044;-60
2022/05/03 00:24:23;;;;;;;25.02;16.00;;;10.90;99.90;;;;;;5029792;28;20052;-63
2022/05/03 00:26:51;;;;;;;27.38;16.00;;;10.90;99.90;;;;;;5026285;28;20049;-60
2022/05/03 00:29:20;;;;;;;24.00;15.57;;;10.80;99.90;;;;;;5032000;28;20056;-63
2022/05/03 00:31:48;;;;;;;25.65;15.23;;;10.90;99.90;;;;;;5028153;28;20065;-63
2022/05/03 00:34:17;;;;;;;25.23;15.55;;;10.80;99.90;;;;;;5030638;28;20429;-63
2022/05/03 00:36:44;;;;;;;31.13;16.23;;;10.80;99.90;;;;;;5030867;28;20492;-63
2022/05/03 00:39:12;;;;;;;21.63;15.20;;;10.90;99.90;;;;;;5061016;28;20050;-60
2022/05/03 00:41:55;;;;;;;22.50;14.18;;;10.80;99.90;;;;;;5020627;28;20045;-64
2022/05/03 00:44:55;;;;;;;23.42;14.30;;;10.80;99.90;;;;;;5028204;28;20532;-59
2022/05/03 00:47:49;;;;;;;23.08;13.68;;;10.80;99.90;;;;;;5028823;28;20045;-59
2022/05/03 00:50:31;;;;;;;24.58;13.02;;;10.70;99.90;;;;;;5009640;28;20507;-60
2022/05/03 00:53:28;;;;;;;23.75;13.50;;;10.70;99.90;;;;;;5030669;28;20057;-59
2022/05/03 00:56:22;;;;;;;20.02;13.23;;;10.70;99.90;;;;;;5029995;28;20057;-59
2022/05/03 00:59:43;;;;;;;26.92;14.65;;;10.70;99.90;;;;;;5018446;28;20053;-60
2022/05/03 01:02:14;;;;;;;20.98;12.85;;;10.70;99.90;;;;;;4987490;28;20049;-60
2022/05/03 01:05:04;;;;;;;22.00;12.90;;;10.60;99.90;;;;;;4974710;28;20073;-60
2022/05/03 01:07:39;;;;;;;25.87;12.73;;;10.60;99.90;;;;;;5006074;28;20501;-60
2022/05/03 01:10:41;;;;;;;22.30;13.18;;;10.60;99.90;;;;;;5030360;28;20291;-60
2022/05/03 01:13:27;;;;;;;22.30;14.25;;;10.60;99.90;;;;;;5025422;28;20513;-59
2022/05/03 01:16:22;;;;;;;21.23;13.45;;;10.60;99.90;;;;;;5028707;28;20045;-58
2022/05/03 01:19:19;;;;;;;23.70;14.20;;;10.50;99.90;;;;;;5029446;28;20072;-60
2022/05/03 01:21:49;;;;;;;26.92;13.95;;;10.50;99.90;;;;;;5027730;28;20045;-59
2022/05/03 01:24:56;;;;;;;29.20;15.60;;;10.50;99.90;;;;;;5028990;28;20061;-59
2022/05/03 01:27:45;;;;;;;25.77;14.43;;;10.50;99.90;;;;;;5028233;28;20053;-59
2022/05/03 01:30:14;;;;;;;24.75;14.25;;;10.50;99.90;;;;;;5028918;28;20044;-59
2022/05/03 01:32:44;;;;;;;26.25;15.15;;;10.50;99.90;;;;;;5012609;28;20042;-60
2022/05/03 01:35:14;;;;;;;32.35;16.02;;;10.50;99.90;;;;;;5027858;28;20045;-60
2022/05/03 01:38:01;;;;;;;24.60;14.38;;;10.40;99.90;;;;;;5030036;28;20056;-59
2022/05/03 01:40:44;;;;;;;27.85;15.77;;;10.40;99.90;;;;;;5029325;28;20048;-59
2022/05/03 01:43:21;;;;;;;30.83;15.90;;;10.40;99.90;;;;;;5024506;28;20052;-59
2022/05/03 01:46:15;;;;;;;29.00;16.17;;;10.30;99.90;;;;;;5028745;28;20046;-59
2022/05/03 01:51:45;;;;;;;27.50;16.45;;;10.20;99.90;;;;;;5020300;28;20041;-59
2022/05/03 01:54:50;;;;;;;29.30;14.70;;;10.30;99.90;;;;;;5029781;28;20053;-57
2022/05/03 01:57:54;;;;;;;26.55;15.02;;;10.20;99.90;;;;;;5029648;28;20056;-57
2022/05/03 02:00:22;;;;;;;27.63;14.68;;;10.10;99.90;;;;;;5030078;28;20600;-57
2022/05/03 02:03:07;;;;;;;26.08;13.77;;;10.00;99.90;;;;;;5059400;28;20061;-57
2022/05/03 02:05:49;;;;;;;24.13;14.40;;;10.00;99.90;;;;;;5029081;28;20053;-58
2022/05/03 02:08:24;;;;;;;30.55;15.52;;;9.90;99.90;;;;;;5032263;28;20041;-58
2022/05/03 02:10:55;;;;;;;28.55;16.15;;;9.80;99.90;;;;;;5015903;28;20049;-58
2022/05/03 02:16:41;;;;;;;33.00;15.70;;;9.80;99.90;;;;;;5031215;28;20548;-58
2022/05/03 02:19:27;;;;;;;32.35;16.42;;;9.80;99.90;;;;;;5030245;28;20368;-57
2022/05/03 02:22:16;;;;;;;29.58;15.85;;;9.80;99.90;;;;;;5020552;28;20045;-57
2022/05/03 02:24:56;;;;;;;24.87;15.10;;;9.70;99.90;;;;;;5031099;28;20038;-60
2022/05/03 02:27:26;;;;;;;32.55;16.55;;;9.70;99.90;;;;;;5031035;28;20650;-61
2022/05/03 02:29:57;;;;;;;40.08;17.98;;;9.70;99.90;;;;;;5030138;28;20409;-60
2022/05/03 02:32:33;;;;;;;32.95;18.15;;;9.70;99.90;;;;;;5033015;28;20046;-59
2022/05/03 02:35:05;;;;;;;34.70;20.13;;;9.70;99.90;;;;;;5033619;28;20049;-60
2022/05/03 02:37:53;;;;;;;34.72;20.45;;;9.70;99.90;;;;;;5033162;28;20045;-61
2022/05/03 02:40:25;;;;;;;31.83;19.10;;;9.70;99.90;;;;;;5034670;28;20046;-63
2022/05/03 02:42:53;;;;;;;37.83;21.13;;;9.60;99.90;;;;;;5034756;28;20484;-63
2022/05/03 02:45:21;;;;;;;36.75;20.70;;;9.70;99.90;;;;;;5032829;28;20428;-62
2022/05/03 02:48:14;;;;;;;37.35;20.52;;;9.70;99.90;;;;;;5034365;28;20049;-62
2022/05/03 02:50:50;;;;;;;39.78;20.23;;;9.60;99.90;;;;;;5033535;28;20041;-61
2022/05/03 02:53:42;;;;;;;35.78;21.58;;;9.60;99.90;;;;;;5031438;28;20045;-62
2022/05/03 02:56:25;;;;;;;33.85;19.70;;;9.60;99.90;;;;;;5034511;28;20056;-62
2022/05/03 02:59:16;;;;;;;37.10;20.73;;;9.60;99.90;;;;;;5033385;28;20045;-62
2022/05/03 03:01:56;;;;;;;33.13;19.35;;;9.60;99.90;;;;;;5034311;28;20053;-61
2022/05/03 03:04:39;;;;;;;32.33;19.65;;;9.60;99.90;;;;;;5034309;28;20056;-59
2022/05/03 03:07:09;;;;;;;38.15;21.10;;;9.60;99.90;;;;;;5018900;28;20044;-61
2022/05/03 03:09:44;;;;;;;;;;;9.50;99.90;;;;;;5034551;28;20477;-62
2022/05/03 03:12:39;;;;;;;30.60;16.73;;;9.50;99.90;;;;;;5034090;28;19921;-59
2022/05/03 03:15:09;;;;;;;34.53;18.00;;;9.40;99.90;;;;;;5034041;28;20061;-58
2022/05/03 03:17:50;;;;;;;;;;;9.40;99.90;;;;;;5032924;28;20509;-58
2022/05/03 03:20:19;;;;;;;31.33;16.35;;;9.40;99.90;;;;;;5014320;28;20374;-58
2022/05/03 03:22:47;;;;;;;28.48;16.50;;;9.40;99.90;;;;;;5024121;28;20049;-58
2022/05/03 03:25:18;;;;;;;26.50;16.40;;;9.30;99.90;;;;;;5033788;28;20052;-58
2022/05/03 03:27:51;;;;;;;30.85;16.90;;;9.30;99.90;;;;;;5033928;28;20037;-59
2022/05/03 03:30:21;;;;;;;30.88;17.23;;;9.30;99.90;;;;;;5032568;28;20521;-58
2022/05/03 03:32:51;;;;;;;27.50;16.30;;;9.20;99.90;;;;;;5033632;28;20057;-59
2022/05/03 03:35:20;;;;;;;28.17;16.00;;;9.20;99.90;;;;;;5032792;28;20052;-58
2022/05/03 03:37:50;;;;;;;27.23;15.98;;;9.20;99.90;;;;;;5032681;28;20412;-59
2022/05/03 03:40:19;;;;;;;28.27;14.75;;;9.20;99.90;;;;;;5033489;28;20045;-59
2022/05/03 03:42:47;;;;;;;22.23;12.38;;;9.30;99.90;;;;;;5032573;28;20046;-59
2022/05/03 03:45:18;;;;;;;23.25;12.95;;;9.20;99.90;;;;;;5032771;28;20046;-58
2022/05/03 03:47:47;;;;;;;20.83;12.40;;;9.20;99.90;;;;;;5033334;28;20038;-59
2022/05/03 03:50:15;;;;;;;23.77;11.30;;;9.20;99.90;;;;;;5033654;28;20057;-59
2022/05/03 03:52:44;;;;;;;17.60;10.05;;;9.20;99.90;;;;;;5048158;28;20371;-59
2022/05/03 03:55:13;;;;;;;28.20;12.07;;;9.10;99.90;;;;;;5032277;28;20064;-59
2022/05/03 03:57:42;;;;;;;20.40;10.88;;;9.10;99.90;;;;;;5032324;28;20436;-59
2022/05/03 04:00:12;;;;;;;18.48;10.88;;;9.00;99.90;;;;;;5013365;28;20068;-58
2022/05/03 04:02:42;;;;;;;25.30;10.82;;;9.00;99.90;;;;;;5013640;28;20056;-59
2022/05/03 04:05:21;;;;;;;26.85;11.68;;;9.00;99.90;;;;;;5024780;28;20075;-59
2022/05/03 04:07:50;;;;;;;23.35;11.27;;;9.00;99.90;;;;;;5032195;28;20050;-58
2022/05/03 04:10:18;;;;;;;19.48;10.98;;;8.90;99.90;;;;;;5033107;28;20374;-59
2022/05/03 04:12:46;;;;;;;17.55;10.00;;;9.00;99.90;;;;;;5032708;28;20478;-58
2022/05/03 04:15:14;;;;;;;18.65;9.65;;;8.90;99.90;;;;;;5033233;28;20053;-59
2022/05/03 04:17:43;;;;;;;18.02;10.07;;;9.00;99.90;;;;;;5032924;28;20061;-58
2022/05/03 04:20:18;;;;;;;18.27;9.98;;;8.90;99.90;;;;;;5031990;28;20661;-58
2022/05/03 04:22:46;;;;;;;22.63;11.27;;;8.90;99.90;;;;;;5032864;28;20046;-58
2022/05/03 04:25:14;;;;;;;23.10;10.40;;;8.90;99.90;;;;;;5031919;28;20049;-59
2022/05/03 04:27:42;;;;;;;16.88;9.25;;;9.00;99.90;;;;;;5032503;28;20042;-58
2022/05/03 04:30:10;;;;;;;22.10;10.70;;;8.90;99.90;;;;;;5032782;28;20064;-58
2022/05/03 04:32:38;;;;;;;14.68;8.45;;;8.90;99.90;;;;;;5031920;28;20050;-59
2022/05/03 04:35:06;;;;;;;18.10;8.30;;;8.90;99.90;;;;;;5030338;28;20045;-59
2022/05/03 04:37:34;;;;;;;19.60;9.55;;;8.90;99.90;;;;;;5030613;28;20500;-59
2022/05/03 04:40:01;;;;;;;17.48;9.02;;;8.90;99.90;;;;;;5031228;28;20041;-58
2022/05/03 04:42:29;;;;;;;17.65;9.45;;;8.90;99.90;;;;;;5031515;28;20064;-59
2022/05/03 04:44:57;;;;;;;15.43;8.70;;;8.90;99.90;;;;;;5031345;28;20041;-59
2022/05/03 04:47:25;;;;;;;20.52;8.80;;;8.90;99.90;;;;;;5024834;28;20048;-61
2022/05/03 04:49:52;;;;;;;14.65;8.68;;;8.90;99.90;;;;;;5017173;28;20056;-61
2022/05/03 04:52:21;;;;;;;21.50;9.07;;;8.90;99.90;;;;;;5027654;28;20049;-63
2022/05/03 04:54:48;;;;;;;15.27;8.07;;;8.90;99.90;;;;;;5028021;28;20056;-60
2022/05/03 04:57:16;;;;;;;14.85;8.32;;;8.90;99.90;;;;;;5027498;28;20046;-62
2022/05/03 04:59:44;;;;;;;13.35;7.65;;;8.90;99.90;;;;;;5029122;28;20054;-62
2022/05/03 05:02:11;;;;;;;13.00;7.75;;;8.80;99.90;;;;;;5004522;28;20042;-59
2022/05/03 05:04:39;;;;;;;14.02;7.10;;;8.80;99.90;;;;;;5026374;28;20045;-61
2022/05/03 05:07:06;;;;;;;11.43;7.45;;;8.70;99.90;;;;;;5023120;28;20504;-59
2022/05/03 05:09:34;;;;;;;10.80;6.45;;;8.70;99.90;;;;;;5028780;28;20045;-58
2022/05/03 05:12:02;;;;;;;11.13;6.55;;;8.70;99.90;;;;;;5029437;28;20049;-61
2022/05/03 05:14:30;;;;;;;13.05;6.75;;;8.70;99.90;;;;;;5029252;28;20835;-59
2022/05/03 05:16:58;;;;;;;16.65;6.53;;;8.70;99.90;;;;;;5025939;28;20045;-59
2022/05/03 05:19:25;;;;;;;11.90;6.60;;;8.60;99.90;;;;;;5011279;28;20050;-60
2022/05/03 05:21:53;;;;;;;10.60;6.03;;;8.60;99.90;;;;;;5022985;28;20389;-60
2022/05/03 05:24:20;;;;;;;10.10;6.47;;;8.60;99.90;;;;;;5007581;28;20053;-60
2022/05/03 05:26:48;;;;;;;9.18;6.07;;;8.60;99.90;;;;;;5026449;28;20042;-61
2022/05/03 05:29:16;;;;;;;10.52;5.55;;;8.60;99.90;;;;;;5028870;28;20060;-62
2022/05/03 05:31:43;;;;;;;11.50;5.78;;;8.60;99.90;;;;;;5026405;28;20060;-59
2022/05/03 05:34:11;;;;;;;11.38;5.60;;;8.70;99.90;;;;;;5012563;28;20053;-59
2022/05/03 05:36:39;;;;;;;9.10;5.72;;;8.70;99.90;;;;;;5028751;28;20046;-60
2022/05/03 05:39:07;;;;;;;6.15;4.32;;;8.70;99.90;;;;;;5024928;28;20056;-61
2022/05/03 05:41:34;;;;;;;9.40;5.03;;;8.70;99.90;;;;;;5029180;28;20393;-62
2022/05/03 05:44:03;;;;;;;7.70;4.18;;;8.70;99.90;;;;;;5018725;28;20038;-59
2022/05/03 05:46:30;;;;;;;8.40;4.60;;;8.70;99.90;;;;;;5028849;28;20400;-59
2022/05/03 05:48:58;;;;;;;7.93;5.10;;;8.70;99.90;;;;;;5020881;28;20417;-59
2022/05/03 05:51:26;;;;;;;9.18;5.97;;;8.70;99.90;;;;;;5020217;28;20045;-60
2022/05/03 05:53:54;;;;;;;8.63;4.88;;;8.70;99.90;;;;;;5027835;28;20400;-63
2022/05/03 05:56:22;;;;;;;9.55;4.88;;;8.70;99.90;;;;;;5028637;28;20045;-60
2022/05/03 05:58:49;;;;;;;6.88;4.43;;;8.70;99.90;;;;;;5031055;28;20379;-64
2022/05/03 06:01:24;;;;;;;12.25;4.55;;;8.70;99.90;;;;;;5024024;28;20060;-59
2022/05/03 06:03:53;;;;;;;7.75;4.47;;;8.70;99.90;;;;;;4988017;28;20405;-64
2022/05/03 06:06:21;;;;;;;6.10;3.90;;;8.70;99.90;;;;;;5027984;28;20405;-59
2022/05/03 06:08:49;;;;;;;9.48;3.70;;;8.70;99.90;;;;;;5031968;28;20057;-59
2022/05/03 06:11:16;;;;;;;8.95;4.47;;;8.80;99.90;;;;;;5032648;28;20053;-59
2022/05/03 06:13:44;;;;;;;8.65;3.42;;;8.70;99.90;;;;;;5032715;28;20042;-58
2022/05/03 06:16:15;;;;;;;5.47;3.45;;;8.70;99.90;;;;;;5033657;28;20041;-59
2022/05/03 06:18:43;;;;;;;4.50;2.85;;;8.70;99.90;;;;;;5027103;28;20548;-60
2022/05/03 06:21:10;;;;;;;6.88;3.00;;;8.70;99.90;;;;;;5029705;28;20423;-58
2022/05/03 06:23:38;;;;;;;5.28;3.47;;;8.70;99.90;;;;;;5028806;28;20053;-58
2022/05/03 06:26:07;;;;;;;5.07;3.45;;;8.60;99.90;;;;;;5029137;28;20041;-59
2022/05/03 06:28:44;;;;;;;5.05;3.00;;;8.60;99.90;;;;;;5031736;28;21694;-58
2022/05/03 06:31:12;;;;;;;7.75;3.35;;;8.60;99.90;;;;;;5025383;28;20401;-59
2022/05/03 06:33:40;;;;;;;7.57;3.85;;;8.60;99.90;;;;;;5027321;28;20545;-58
2022/05/03 06:36:15;;;;;;;6.43;3.78;;;8.60;99.90;;;;;;5013610;28;20062;-59
2022/05/03 06:38:43;;;;;;;6.20;3.72;;;8.60;99.90;;;;;;5058156;28;20041;-59
2022/05/03 06:41:12;;;;;;;7.68;4.63;;;8.60;99.90;;;;;;5031142;28;20536;-58
2022/05/03 06:43:40;;;;;;;4.43;3.58;;;8.60;99.90;;;;;;5062161;28;20042;-58
2022/05/03 06:46:08;;;;;;;12.02;3.95;;;8.60;99.90;;;;;;5030313;28;20045;-58
2022/05/03 06:48:35;;;;;;;7.15;4.57;;;8.60;99.90;;;;;;5026064;28;20061;-58
2022/05/03 06:51:05;;;;;;;10.90;4.65;;;8.60;99.90;;;;;;5024061;28;20054;-57
2022/05/03 06:53:33;;;;;;;7.95;4.60;;;8.60;99.90;;;;;;5013003;28;20045;-57
2022/05/03 06:56:00;;;;;;;10.25;4.50;;;8.60;99.90;;;;;;5028847;28;20045;-58
2022/05/03 06:58:28;;;;;;;6.38;4.53;;;8.60;99.90;;;;;;5024519;28;20056;-58
2022/05/03 07:00:56;;;;;;;10.95;5.60;;;8.60;99.90;;;;;;5025979;28;20124;-58
2022/05/03 07:03:23;;;;;;;9.80;5.93;;;8.60;99.90;;;;;;5021721;28;20061;-58
2022/05/03 07:05:52;;;;;;;8.05;4.63;;;8.60;99.90;;;;;;5018523;28;20041;-59
2022/05/03 07:08:20;;;;;;;10.18;5.35;;;8.60;99.90;;;;;;5029238;28;20112;-59
2022/05/03 07:10:47;;;;;;;7.75;4.38;;;8.60;99.90;;;;;;5031514;28;20057;-60
2022/05/03 07:13:15;;;;;;;7.13;4.43;;;8.60;99.90;;;;;;5026699;28;20064;-59
2022/05/03 07:15:43;;;;;;;10.40;5.68;;;8.60;99.90;;;;;;5031455;28;20068;-60
2022/05/03 07:23:44;;;;;;;13.13;5.60;;;8.60;99.90;;;;;;5019087;28;20045;-59
2022/05/03 07:26:12;;;;;;;12.48;5.88;;;8.60;99.90;;;;;;5017873;28;20056;-59
2022/05/03 07:28:40;;;;;;;11.98;5.95;;;8.70;99.90;;;;;;5023740;28;20042;-59
2022/05/03 07:31:11;;;;;;;10.48;5.65;;;8.70;99.90;;;;;;5023459;28;20057;-60
2022/05/03 07:33:39;;;;;;;8.93;5.80;;;8.70;99.90;;;;;;5027226;28;20049;-59
2022/05/03 07:36:07;;;;;;;13.27;5.95;;;8.70;99.90;;;;;;5020681;28;20045;-59
2022/05/03 07:38:35;;;;;;;10.73;5.28;;;8.70;99.90;;;;;;5015616;28;20057;-59
2022/05/03 07:41:03;;;;;;;12.98;6.20;;;8.80;99.90;;;;;;5012950;28;20052;-59
2022/05/03 07:43:31;;;;;;;22.40;5.30;;;8.70;99.90;;;;;;5020197;28;20053;-59
2022/05/03 07:45:59;;;;;;;10.32;5.35;;;8.70;99.90;;;;;;5029345;28;20089;-59
2022/05/03 07:48:27;;;;;;;10.02;5.55;;;8.70;99.90;;;;;;5029665;28;20053;-60
2022/05/03 07:50:55;;;;;;;13.05;5.30;;;8.70;99.90;;;;;;5022332;28;20045;-59
2022/05/03 07:53:22;;;;;;;10.05;5.35;;;8.70;99.90;;;;;;5010751;28;20050;-59
2022/05/03 07:55:50;;;;;;;9.93;5.55;;;8.70;99.90;;;;;;5012440;28;20065;-59
2022/05/03 07:58:19;;;;;;;10.63;5.65;;;8.80;99.90;;;;;;5023138;28;20040;-61
2022/05/03 08:00:48;;;;;;;11.25;6.03;;;8.80;99.90;;;;;;5031041;28;20053;-60
2022/05/03 08:03:16;;;;;;;12.00;4.85;;;8.80;99.90;;;;;;5027668;28;20038;-60
2022/05/03 08:05:44;;;;;;;10.52;5.95;;;8.90;99.90;;;;;;5024393;28;20666;-62
2022/05/03 08:08:13;;;;;;;15.88;5.82;;;8.90;99.90;;;;;;5020150;28;20045;-63
2022/05/03 08:10:40;;;;;;;9.70;5.97;;;8.90;99.90;;;;;;5031623;28;20056;-61
2022/05/03 08:13:08;;;;;;;9.38;5.30;;;9.00;99.90;;;;;;5030402;28;20068;-61
2022/05/03 08:15:35;;;;;;;11.23;5.70;;;9.00;99.90;;;;;;5030637;28;20047;-59
2022/05/03 08:18:03;;;;;;;9.27;5.78;;;9.10;99.90;;;;;;5024331;28;20068;-60
2022/05/03 08:20:31;;;;;;;11.90;6.43;;;9.10;99.90;;;;;;5025608;28;20048;-59
2022/05/03 08:22:59;;;;;;;9.85;6.10;;;9.20;99.90;;;;;;5028533;28;20045;-59
2022/05/03 08:25:28;;;;;;;12.57;5.40;;;9.10;99.90;;;;;;5030964;28;20732;-59
2022/05/03 08:27:56;;;;;;;14.75;5.97;;;9.20;99.90;;;;;;5031724;28;20037;-59
2022/05/03 08:30:24;;;;;;;11.48;6.10;;;9.20;99.90;;;;;;5031669;28;20060;-61
2022/05/03 08:32:52;;;;;;;15.13;6.70;;;9.20;99.90;;;;;;5026313;28;20054;-59
2022/05/03 08:35:24;;;;;;;16.63;8.20;;;9.20;99.90;;;;;;5018627;28;20056;-59
2022/05/03 08:43:24;;;;;;;13.70;6.85;;;9.40;99.90;;;;;;5030588;28;20060;-58
2022/05/03 08:45:52;;;;;;;12.57;6.80;;;9.50;99.90;;;;;;5019275;28;20046;-59
2022/05/03 08:48:27;;;;;;;15.13;7.30;;;9.50;99.90;;;;;;5019913;28;20481;-59
2022/05/03 08:50:55;;;;;;;17.20;7.57;;;9.60;99.90;;;;;;5024715;28;20045;-59
2022/05/03 08:53:23;;;;;;;10.68;6.88;;;9.60;99.90;;;;;;5027371;28;20049;-60
2022/05/03 08:55:51;;;;;;;13.65;6.85;;;9.70;99.90;;;;;;5029996;28;20041;-59
2022/05/03 08:58:19;;;;;;;14.15;8.15;;;9.70;99.90;;;;;;5022502;28;20056;-60
2022/05/03 09:00:47;;;;;;;16.92;7.78;;;9.80;99.90;;;;;;5026001;28;20052;-59
2022/05/03 09:03:15;;;;;;;17.00;7.75;;;9.80;99.90;;;;;;5029299;28;20048;-60
2022/05/03 09:05:48;;;;;;;10.32;7.15;;;9.90;99.90;;;;;;5022940;28;20038;-59
2022/05/03 09:08:23;;;;;;;10.83;7.20;;;9.90;99.90;;;;;;5025672;28;20042;-59
2022/05/03 09:10:53;;;;;;;14.63;6.97;;;9.90;99.90;;;;;;5062551;28;20302;-59
2022/05/03 09:13:42;;;;;;;12.03;7.77;;;10.00;99.90;;;;;;5025748;28;20516;-60
2022/05/03 09:16:17;;;;;;;14.60;7.55;;;10.10;99.90;;;;;;5028077;28;20303;-59
2022/05/03 09:18:47;;;;;;;11.77;7.35;;;10.10;99.90;;;;;;5026469;28;20045;-59
2022/05/03 09:24:13;;;;;;;14.23;6.97;;;10.30;99.90;;;;;;5024518;28;20043;-64
2022/05/03 09:26:41;;;;;;;14.55;8.10;;;10.30;99.90;;;;;;5026696;28;20045;-64
2022/05/03 09:29:11;;;;;;;16.42;8.13;;;10.30;99.90;;;;;;5016751;28;20057;-62
2022/05/03 09:31:41;;;;;;;13.45;7.22;;;10.40;99.90;;;;;;5014355;28;20048;-64
2022/05/03 09:34:26;;;;;;;13.35;7.57;;;10.40;99.90;;;;;;5019391;28;20033;-64
2022/05/03 09:36:56;;;;;;;11.43;7.50;;;10.40;99.90;;;;;;5028231;28;20056;-64
2022/05/03 09:39:41;;;;;;;18.75;8.35;;;10.40;99.90;;;;;;5029841;28;20394;-59
2022/05/03 09:42:13;;;;;;;16.58;7.88;;;10.50;99.90;;;;;;5029957;28;20045;-59
2022/05/03 09:45:02;;;;;;;18.33;8.25;;;10.50;99.90;;;;;;5015578;28;20053;-58
2022/05/03 09:47:48;;;;;;;15.52;8.25;;;10.60;99.90;;;;;;5029652;28;20049;-59
2022/05/03 09:50:36;;;;;;;15.32;8.23;;;10.60;99.90;;;;;;5027665;28;20056;-58
2022/05/03 09:53:22;;;;;;;16.05;8.60;;;10.70;99.90;;;;;;5030327;28;20508;-58
2022/05/03 09:55:50;;;;;;;20.20;9.13;;;10.70;99.90;;;;;;5028145;28;20049;-58
2022/05/03 09:58:19;;;;;;;16.50;9.93;;;10.70;99.90;;;;;;5025359;28;20046;-58
2022/05/03 10:00:48;;;;;;;16.55;10.00;;;10.70;99.90;;;;;;5012205;28;20060;-58
2022/05/03 10:03:16;;;;;;;18.52;9.90;;;10.70;99.90;;;;;;5028503;28;20512;-57
2022/05/03 10:05:45;;;;;;;15.98;10.32;;;10.80;99.90;;;;;;5028182;28;20534;-59
2022/05/03 10:08:17;;;;;;;19.95;10.95;;;10.90;99.90;;;;;;5029748;28;20049;-58
2022/05/03 10:10:56;;;;;;;18.35;11.43;;;11.00;99.90;;;;;;5030783;28;20385;-62
2022/05/03 10:13:26;;;;;;;16.70;11.05;;;11.10;99.90;;;;;;5025386;28;20042;-59
2022/05/03 10:21:38;;;;;;;22.33;12.73;;;11.20;99.90;;;;;;5029509;28;20064;-62
2022/05/03 10:24:07;;;;;;;18.25;12.68;;;11.30;99.90;;;;;;5030562;28;20046;-59
2022/05/03 10:27:05;;;;;;;19.30;12.73;;;11.40;99.90;;;;;;5030963;28;20057;-59
2022/05/03 10:29:35;;;;;;;24.80;13.95;;;11.50;99.90;;;;;;5023019;28;20049;-60
2022/05/03 10:32:06;;;;;;;20.90;13.00;;;11.60;99.90;;;;;;5028880;28;20041;-59
2022/05/03 10:34:40;;;;;;;16.25;10.73;;;11.70;99.90;;;;;;5029964;28;20041;-64
2022/05/03 10:37:10;;;;;;;20.92;12.65;;;11.70;99.90;;;;;;5026716;28;20045;-64
2022/05/03 10:39:56;;;;;;;17.13;11.20;;;11.70;99.90;;;;;;5029071;28;20516;-63
2022/05/03 10:42:28;;;;;;;15.23;11.02;;;11.80;99.90;;;;;;5024972;28;20674;-64
2022/05/03 10:45:07;;;;;;;18.63;11.60;;;11.90;99.90;;;;;;5022896;28;20065;-60
2022/05/03 10:47:53;;;;;;;16.65;11.68;;;11.90;99.90;;;;;;5022949;28;20056;-60
2022/05/03 10:50:34;;;;;;;16.67;10.57;;;11.90;99.90;;;;;;5029032;28;20520;-59
2022/05/03 10:53:02;;;;;;;15.80;9.40;;;12.10;99.90;;;;;;5028531;28;20061;-59
2022/05/03 10:55:40;;;;;;;13.85;9.40;;;12.10;99.90;;;;;;5030183;28;20037;-61
2022/05/03 10:58:19;;;;;;;18.08;10.02;;;12.20;99.90;;;;;;5019453;28;20049;-59
2022/05/03 11:01:09;;;;;;;14.75;9.82;;;12.20;99.90;;;;;;5018158;28;20053;-59
2022/05/03 11:04:01;;;;;;;17.98;9.45;;;12.30;99.90;;;;;;5031129;28;20067;-59
2022/05/03 11:06:29;;;;;;;12.68;9.40;;;12.30;99.90;;;;;;5031891;28;20053;-59
2022/05/03 11:11:37;;;;;;;14.18;9.80;;;12.40;99.90;;;;;;5013871;28;20049;-60
2022/05/03 11:14:11;;;;;;;16.13;9.98;;;12.50;99.90;;;;;;5022075;28;20042;-58
2022/05/03 11:16:39;;;;;;;13.30;8.93;;;12.60;99.90;;;;;;5013073;28;20045;-59
2022/05/03 11:19:23;;;;;;;12.27;9.57;;;12.50;99.90;;;;;;5028500;28;20054;-59
2022/05/03 11:21:51;;;;;;;17.95;9.85;;;12.50;99.90;;;;;;5031044;28;20057;-59
2022/05/03 11:24:24;;;;;;;17.15;9.55;;;12.50;99.90;;;;;;5028715;28;20382;-58
2022/05/03 11:27:03;;;;;;;12.93;9.20;;;12.50;99.90;;;;;;5031032;28;20044;-59
2022/05/03 11:29:42;;;;;;;18.73;10.10;;;12.60;99.90;;;;;;5028027;28;20057;-59
2022/05/03 11:32:10;;;;;;;17.30;9.80;;;12.50;99.90;;;;;;5025497;28;20305;-58
2022/05/03 11:34:38;;;;;;;12.82;9.93;;;12.50;99.90;;;;;;5031278;28;20045;-59
2022/05/03 11:37:07;;;;;;;18.10;10.00;;;12.50;99.90;;;;;;5026528;28;20056;-60
2022/05/03 11:39:36;;;;;;;19.33;9.32;;;12.40;99.90;;;;;;5026581;28;20048;-61
2022/05/03 11:42:13;;;;;;;17.10;10.40;;;12.40;99.90;;;;;;5032024;28;20367;-59
2022/05/03 11:44:45;;;;;;;15.48;9.50;;;12.40;99.90;;;;;;5030382;28;20295;-61
2022/05/03 11:47:14;;;;;;;13.40;9.43;;;12.40;99.90;;;;;;5036643;28;20036;-60
2022/05/03 11:49:45;;;;;;;15.88;9.32;;;12.40;99.90;;;;;;5030553;28;20056;-60
2022/05/03 11:57:46;;;;;;;17.08;10.57;;;12.40;99.90;;;;;;5026489;28;20060;-59
2022/05/03 12:00:14;;;;;;;15.48;10.13;;;12.50;99.90;;;;;;5016021;28;20049;-59
2022/05/03 12:02:43;;;;;;;14.35;9.93;;;12.50;99.90;;;;;;5023341;28;20045;-59
2022/05/03 12:05:20;;;;;;;25.58;10.25;;;12.60;99.90;;;;;;5030553;28;20053;-59
2022/05/03 12:07:53;;;;;;;14.48;8.85;;;12.70;99.90;;;;;;5013950;28;20033;-62
2022/05/03 12:10:34;;;;;;;14.15;8.52;;;12.80;99.90;;;;;;5027704;28;20045;-60
2022/05/03 12:13:06;;;;;;;12.40;8.48;;;13.00;99.90;;;;;;5030805;28;20042;-61
2022/05/03 12:15:39;;;;;;;11.90;8.73;;;13.10;99.90;;;;;;5027589;28;20505;-60
2022/05/03 12:18:17;;;;;;;16.02;8.50;;;13.40;99.90;;;;;;5062635;28;20037;-60
2022/05/03 12:20:48;;;;;;;14.55;8.20;;;13.50;99.90;;;;;;5029385;28;20056;-59
2022/05/03 12:23:19;;;;;;;11.35;7.93;;;13.70;99.90;;;;;;5028426;28;20053;-60
2022/05/03 12:25:52;;;;;;;10.60;7.53;;;13.90;99.90;;;;;;5030184;28;20042;-62
2022/05/03 12:28:33;;;;;;;11.10;7.43;;;14.10;99.90;;;;;;5029354;28;20045;-60
2022/05/03 12:31:03;;;;;;;15.20;8.60;;;14.30;99.90;;;;;;5020007;28;20057;-61
2022/05/03 12:33:32;;;;;;;13.95;8.05;;;14.60;99.90;;;;;;5030897;28;20618;-60
2022/05/03 12:36:00;;;;;;;15.32;6.93;;;14.70;99.90;;;;;;5032854;28;20100;-60
2022/05/03 12:38:28;;;;;;;9.90;6.72;;;14.80;99.90;;;;;;5028408;28;20500;-60
2022/05/03 12:40:57;;;;;;;11.40;6.72;;;15.00;99.90;;;;;;5029242;28;20451;-60
2022/05/03 12:43:30;;;;;;;12.43;7.93;;;15.10;99.90;;;;;;5028441;28;20056;-60
2022/05/03 12:46:02;;;;;;;10.52;6.72;;;15.20;99.90;;;;;;5028738;28;20052;-60
2022/05/03 12:48:36;;;;;;;9.88;6.47;;;15.30;99.90;;;;;;5032249;28;20041;-60
2022/05/03 12:51:05;;;;;;;9.80;6.55;;;15.50;99.90;;;;;;5023544;28;20052;-60
2022/05/03 12:53:35;;;;;;;10.27;6.60;;;15.50;99.90;;;;;;5017421;28;20061;-64
2022/05/03 12:58:49;;;;;;;7.30;5.65;;;15.40;99.90;;;;;;5029743;28;19921;-60
2022/05/03 13:01:17;;;;;;;11.95;5.50;;;15.40;99.90;;;;;;5021280;28;20058;-64
2022/05/03 13:03:48;;;;;;;11.97;5.87;;;15.40;99.90;;;;;;5018421;28;20065;-62
2022/05/03 13:06:22;;;;;;;14.05;6.45;;;15.40;99.90;;;;;;5030010;28;20041;-64
2022/05/03 13:08:52;;;;;;;15.57;6.78;;;15.30;99.90;;;;;;5025995;28;20049;-64
2022/05/03 13:11:20;;;;;;;12.73;7.50;;;15.20;99.90;;;;;;5020714;28;20046;-65
2022/05/03 13:13:49;;;;;;;14.95;6.93;;;15.20;99.90;;;;;;5026717;28;20056;-61
2022/05/03 13:16:16;;;;;;;12.77;7.53;;;15.20;99.90;;;;;;5021437;28;20064;-62
2022/05/03 13:18:45;;;;;;;14.50;8.40;;;15.20;99.90;;;;;;5022401;28;20053;-61
2022/05/03 13:21:35;;;;;;;13.52;7.93;;;15.20;99.90;;;;;;5028395;28;20046;-63
2022/05/03 13:24:05;;;;;;;13.73;7.55;;;15.20;99.90;;;;;;5030036;28;20046;-61
2022/05/03 13:26:34;;;;;;;11.07;6.82;;;15.30;99.90;;;;;;5028656;28;20493;-61
2022/05/03 13:29:05;;;;;;;13.63;7.83;;;15.30;99.90;;;;;;5029911;28;20057;-64
2022/05/03 13:31:33;;;;;;;14.27;8.18;;;15.30;99.90;;;;;;5023952;28;20053;-62
2022/05/03 13:34:00;;;;;;;12.13;7.07;;;15.30;99.90;;;;;;5026585;28;20473;-63
2022/05/03 13:42:03;;;;;;;12.13;8.52;;;15.50;99.90;;;;;;5027100;28;20072;-60
2022/05/03 13:44:32;;;;;;;14.30;7.95;;;15.50;99.90;;;;;;5031909;28;20057;-64
2022/05/03 13:47:00;;;;;;;12.27;8.07;;;15.60;99.90;;;;;;5025979;28;20037;-62
2022/05/03 13:49:27;;;;;;;12.65;8.77;;;15.70;99.90;;;;;;5029457;28;20042;-64
2022/05/03 13:51:55;;;;;;;13.90;8.52;;;15.70;99.90;;;;;;5031160;28;20056;-64